Regent — CFC5756 — position and weather

sailwx.info

Track history (hours):
 
Tides and Currents Weather Stations Pressure Air Temp Water Temp Dewpoint Dewpoint Depression Visibility Wind Speed Wind Dir Waves Ship Positions

Regent

Last reported at 2018-Jun-22 11:00 UTC. Time now 2018-Jun-22 11:21 UTC.
Position N 52°00' W 127°56'.

Length 15 m; draft 3.6 m.

Type: Other ship. MMSI: 316006454.

Date/timePositionNaut miles runAvg speedWind from/ knotsBaromVisibWave heightAir tempDewpointWater temp
2018-Jun-22 11:00N 52°00' W 127°56'4 7.0
2018-Jun-22 10:30N 52°04' W 127°57'4 7.2
2018-Jun-22 10:00N 52°04' W 128°02'3 6.4
2018-Jun-22 09:30N 52°05' W 128°07'3 6.3
2018-Jun-22 09:00N 52°08' W 128°08'3 5.7
2018-Jun-22 08:30N 52°11' W 128°06'3 6.1
2018-Jun-22 08:00N 52°13' W 128°10'3 6.3
2018-Jun-22 07:30N 52°14' W 128°15'3 5.9
2018-Jun-22 06:59N 52°15' W 128°19'3 5.9
2018-Jun-22 06:30N 52°16' W 128°24'3 6.1
2018-Jun-22 06:00N 52°18' W 128°28'3 6.0
2018-Jun-22 05:30N 52°20' W 128°30'3 6.6
2018-Jun-22 05:00N 52°24' W 128°29'3 6.1
2018-Jun-22 04:30N 52°26' W 128°28'9 2.2
2018-Jun-22 00:08N 52°36' W 128°31'1 5.3
2018-Jun-21 23:56N 52°34' W 128°31'3 5.8
2018-Jun-21 23:28N 52°32' W 128°29'3 6.9
2018-Jun-21 23:00N 52°29' W 128°28'4 7.3
2018-Jun-21 22:30N 52°25' W 128°28'4 7.3
2018-Jun-21 21:55N 52°21' W 128°30'3 6.7
2018-Jun-21 21:30N 52°18' W 128°29'4 7.3
2018-Jun-21 20:59N 52°16' W 128°24'4 7.2
2018-Jun-21 20:29N 52°15' W 128°18'3 7.0
2018-Jun-21 20:00N 52°14' W 128°13'4 7.1
2018-Jun-21 19:28N 52°13' W 128°07'3 7.0
2018-Jun-21 18:59N 52°10' W 128°08'4 7.4
2018-Jun-21 18:30N 52°06' W 128°07'3 6.3
2018-Jun-21 18:00N 52°05' W 128°03'4 7.1
2018-Jun-21 17:26N 52°04' W 127°57'3 6.1
2018-Jun-21 17:00N 52°01' W 127°56'3 6.3
2018-Jun-21 16:30N 51°58' W 127°56'3 6.4
2018-Jun-21 16:00N 51°55' W 127°56'3 6.8
2018-Jun-21 15:30N 51°52' W 127°55'3 6.7
2018-Jun-21 15:00N 51°48' W 127°55'3 6.7
2018-Jun-21 14:30N 51°45' W 127°55'3 6.4
2018-Jun-21 14:00N 51°42' W 127°54'3 6.3
2018-Jun-21 13:30N 51°39' W 127°54'3 6.6
2018-Jun-21 13:00N 51°36' W 127°52'3 6.3
2018-Jun-21 12:30N 51°33' W 127°51'3 6.2
2018-Jun-21 11:59N 51°29' W 127°51'3 6.0
2018-Jun-21 11:30N 51°27' W 127°50'3 6.4
2018-Jun-21 10:59N 51°23' W 127°49'3 6.6
2018-Jun-21 10:27N 51°20' W 127°51'3 6.4
2018-Jun-21 09:58N 51°17' W 127°52'3 6.2
2018-Jun-21 09:28N 51°14' W 127°51'3 6.1
2018-Jun-21 09:00N 51°11' W 127°50'3 6.1
2018-Jun-21 08:30N 51°08' W 127°48'3 6.6
2018-Jun-21 08:00N 51°06' W 127°44'3 6.5
2018-Jun-21 07:30N 51°04' W 127°41'3 6.7
2018-Jun-21 07:00N 51°01' W 127°38'3 6.6
2018-Jun-21 06:30N 50°58' W 127°35'3 5.8
2018-Jun-21 06:00N 50°55' W 127°34'4 7.2
2018-Jun-21 05:30N 50°52' W 127°31'3 6.8
2018-Jun-21 05:00N 50°49' W 127°28'3 5.8
2018-Jun-21 04:30N 50°46' W 127°28'3 6.1
2018-Jun-21 04:00N 50°43' W 127°29'0 0.4
2018-Jun-21 03:29N 50°43' W 127°29'0 0.0
2018-Jun-21 02:38N 50°43' W 127°29'0 0.0
2018-Jun-21 02:11N 50°43' W 127°29'0 0.0
2018-Jun-21 02:00N 50°43' W 127°29'0 0.0
2018-Jun-21 01:29N 50°43' W 127°29'0 0.0
2018-Jun-21 01:00N 50°43' W 127°29'2 4.1
2018-Jun-21 00:30N 50°45' W 127°28'4 7.1
2018-Jun-21 00:00N 50°49' W 127°27'4 7.3
2018-Jun-20 23:30N 50°52' W 127°31'4 7.1
2018-Jun-20 23:00N 50°55' W 127°34'3 6.8
2018-Jun-20 22:30N 50°58' W 127°36'3 6.5
2018-Jun-20 22:00N 51°01' W 127°38'3 6.3
2018-Jun-20 21:30N 51°03' W 127°41'3 6.5
2018-Jun-20 21:00N 51°06' W 127°45'3 6.7
2018-Jun-20 20:30N 51°08' W 127°48'10 7.1
2018-Jun-20 19:05N 51°18' W 127°53'3 7.4
2018-Jun-20 18:36N 51°21' W 127°53'2 7.1
2018-Jun-20 18:23N 51°23' W 127°52'4 7.4
2018-Jun-20 17:54N 51°26' W 127°52'3 7.6
2018-Jun-20 17:30N 51°29' W 127°52'4 7.2
2018-Jun-20 17:00N 51°33' W 127°53'3 7.1
2018-Jun-20 16:30N 51°36' W 127°54'3 7.0
2018-Jun-20 16:00N 51°40' W 127°56'3 6.9
2018-Jun-20 15:30N 51°43' W 127°56'3 6.8
2018-Jun-20 15:00N 51°46' W 127°57'3 6.9
2018-Jun-20 14:30N 51°50' W 127°57'3 6.8
2018-Jun-20 14:00N 51°53' W 127°57'3 6.6
2018-Jun-20 13:30N 51°57' W 127°57'3 6.6
2018-Jun-20 13:00N 51°60' W 127°56'3 6.6
2018-Jun-20 12:30N 52°03' W 127°56'3 5.7
2018-Jun-20 12:00N 52°05' W 127°60'3 6.8
2018-Jun-20 11:30N 52°05' W 128°05'3 6.1
2018-Jun-20 11:00N 52°07' W 128°08'3 5.8
2018-Jun-20 10:30N 52°10' W 128°08'2 4.6
2018-Jun-20 10:00N 52°13' W 128°08'3 6.6
2018-Jun-20 09:30N 52°14' W 128°13'3 6.7
2018-Jun-20 09:00N 52°15' W 128°18'3 6.6
2018-Jun-20 08:31N 52°15' W 128°24'3 6.3
2018-Jun-20 08:00N 52°17' W 128°27'3 6.4
2018-Jun-20 07:30N 52°20' W 128°30'3 6.6
2018-Jun-20 07:00N 52°24' W 128°29'3 6.6
2018-Jun-20 06:30N 52°27' W 128°27'3 6.2
2018-Jun-20 06:00N 52°30' W 128°28'3 6.6
2018-Jun-20 05:29N 52°33' W 128°30'3 5.5
2018-Jun-20 05:00N 52°36' W 128°31'0 0.0
2018-Jun-20 04:29N 52°36' W 128°31'0 0.0
2018-Jun-20 03:59N 52°36' W 128°31'0 0.0
2018-Jun-20 03:24N 52°36' W 128°31'0 0.0
2018-Jun-20 02:59N 52°36' W 128°31'0 0.0
2018-Jun-20 02:30N 52°36' W 128°31'0 0.0
2018-Jun-20 02:00N 52°36' W 128°31'0 0.0
2018-Jun-20 01:30N 52°36' W 128°31'0 0.0
2018-Jun-20 01:00N 52°36' W 128°31'0 0.0
2018-Jun-20 00:29N 52°36' W 128°31'0 0.0
2018-Jun-19 22:39N 52°36' W 128°31'0 0.0
2018-Jun-19 22:28N 52°36' W 128°31'0 0.0
2018-Jun-19 19:22N 52°36' W 128°31'1 3.2
2018-Jun-19 18:58N 52°34' W 128°31'5 5.6
2018-Jun-19 18:09N 52°30' W 128°28'1 7.2
2018-Jun-19 18:00N 52°29' W 128°27'3 6.5
2018-Jun-19 17:30N 52°26' W 128°28'3 6.4
2018-Jun-19 17:00N 52°23' W 128°29'4 6.7
2018-Jun-19 16:27N 52°19' W 128°30'4 6.6
2018-Jun-19 15:54N 52°16' W 128°26'5 7.8
2018-Jun-19 15:18N 52°15' W 128°18'2 7.5
2018-Jun-19 15:00N 52°14' W 128°15'4 7.0
2018-Jun-19 14:28N 52°14' W 128°09'3 5.8
2018-Jun-19 13:55N 52°10' W 128°07'3 6.2
2018-Jun-19 13:29N 52°08' W 128°08'3 6.2
2018-Jun-19 13:00N 52°05' W 128°06'4 7.5
2018-Jun-19 12:30N 52°05' W 128°00'3 6.6
2018-Jun-19 12:00N 52°03' W 127°56'3 7.0
2018-Jun-19 11:30N 51°59' W 127°56'4 7.0
2018-Jun-19 11:00N 51°56' W 127°56'3 6.9
2018-Jun-19 10:30N 51°52' W 127°55'3 6.9
2018-Jun-19 10:00N 51°49' W 127°55'3 6.8
2018-Jun-19 09:30N 51°46' W 127°55'3 6.9
2018-Jun-19 09:00N 51°42' W 127°54'3 6.8
2018-Jun-19 08:30N 51°39' W 127°53'3 6.8
2018-Jun-19 08:00N 51°36' W 127°52'3 6.5
2018-Jun-19 07:30N 51°32' W 127°51'3 6.6
2018-Jun-19 07:00N 51°29' W 127°50'3 6.7
2018-Jun-19 06:30N 51°26' W 127°48'3 6.4
2018-Jun-19 06:00N 51°23' W 127°49'3 6.5
2018-Jun-19 05:29N 51°20' W 127°51'3 5.9
2018-Jun-19 04:58N 51°17' W 127°52'3 5.9
2018-Jun-19 04:29N 51°14' W 127°51'3 5.8
2018-Jun-19 04:00N 51°11' W 127°50'3 5.9
2018-Jun-19 03:30N 51°08' W 127°48'3 6.2
2018-Jun-19 03:00N 51°06' W 127°45'3 6.1
2018-Jun-19 02:30N 51°04' W 127°41'3 5.9
2018-Jun-19 02:00N 51°02' W 127°38'3 5.8
2018-Jun-19 01:30N 50°59' W 127°36'3 5.2
2018-Jun-19 01:00N 50°57' W 127°35'2 4.9
2018-Jun-19 00:30N 50°54' W 127°33'2 4.6
2018-Jun-19 00:00N 50°53' W 127°31'2 4.2
2018-Jun-18 23:30N 50°51' W 127°29'3 5.2
2018-Jun-18 23:00N 50°49' W 127°27'3 5.6
2018-Jun-18 22:30N 50°46' W 127°28'3 5.1
2018-Jun-18 22:01N 50°43' W 127°28'0 0.1
2018-Jun-18 19:09N 50°43' W 127°29'1 0.5
2018-Jun-18 18:03N 50°43' W 127°28'0 3.9
2018-Jun-18 17:59N 50°43' W 127°28'0 0.9
2018-Jun-18 17:30N 50°43' W 127°29'0 0.0
2018-Jun-18 17:00N 50°43' W 127°29'0 0.0
2018-Jun-18 16:29N 50°43' W 127°29'0 0.0
2018-Jun-18 15:58N 50°43' W 127°29'0 0.0
2018-Jun-18 15:29N 50°43' W 127°29'0 0.0
2018-Jun-18 14:19N 50°43' W 127°29'0 0.0
2018-Jun-18 14:00N 50°43' W 127°29'0 0.0
2018-Jun-18 13:28N 50°43' W 127°29'0 0.0
2018-Jun-18 12:17N 50°43' W 127°29'0 0.0
2018-Jun-18 12:00N 50°43' W 127°29'0 0.0
2018-Jun-18 11:30N 50°43' W 127°29'0 0.0
2018-Jun-18 11:00N 50°43' W 127°29'0 0.0
2018-Jun-18 10:30N 50°43' W 127°29'0 0.0
2018-Jun-18 10:00N 50°43' W 127°29'0 0.0
2018-Jun-18 09:30N 50°43' W 127°29'0 0.0
2018-Jun-18 09:00N 50°43' W 127°29'0 0.0
2018-Jun-18 08:30N 50°43' W 127°29'0 0.0
2018-Jun-18 08:00N 50°43' W 127°29'0 0.0
2018-Jun-18 07:30N 50°43' W 127°29'0 0.0
2018-Jun-18 07:00N 50°43' W 127°29'0 0.0
2018-Jun-18 06:30N 50°43' W 127°29'0 0.0
2018-Jun-18 05:56N 50°43' W 127°29'0 0.0
2018-Jun-18 05:26N 50°43' W 127°29'0 0.0
2018-Jun-18 05:00N 50°43' W 127°29'0 0.0
2018-Jun-18 04:29N 50°43' W 127°29'0 0.0
2018-Jun-18 03:35N 50°43' W 127°29'0 0.0
2018-Jun-18 03:28N 50°43' W 127°29'0 0.0
2018-Jun-18 03:00N 50°43' W 127°29'0 0.0
2018-Jun-18 02:23N 50°43' W 127°29'0 0.0
2018-Jun-18 02:00N 50°43' W 127°29'0 0.0
2018-Jun-18 01:30N 50°43' W 127°29'0 0.0
2018-Jun-18 01:00N 50°43' W 127°29'0 0.0
2018-Jun-18 00:30N 50°43' W 127°29'0 0.0
2018-Jun-18 00:00N 50°43' W 127°29'0 0.0
2018-Jun-17 23:30N 50°43' W 127°29'0 0.0
2018-Jun-17 23:00N 50°43' W 127°29'0 0.0
2018-Jun-17 22:22N 50°43' W 127°29'0 0.0
2018-Jun-17 22:00N 50°43' W 127°29'0 0.0
2018-Jun-17 21:28N 50°43' W 127°29'0 0.0
2018-Jun-17 21:00N 50°43' W 127°29'0 0.0
2018-Jun-17 20:29N 50°43' W 127°29'0 0.0
2018-Jun-17 19:56N 50°43' W 127°29'0 0.0
2018-Jun-17 19:29N 50°43' W 127°29'0 0.0
2018-Jun-17 18:59N 50°43' W 127°29'0 0.0
2018-Jun-17 18:09N 50°43' W 127°29'0 0.0
2018-Jun-17 18:00N 50°43' W 127°29'0 0.0
2018-Jun-17 17:30N 50°43' W 127°29'0 0.0
2018-Jun-17 17:00N 50°43' W 127°29'0 0.0
2018-Jun-17 16:30N 50°43' W 127°29'0 0.0
2018-Jun-17 15:56N 50°43' W 127°29'0 0.0
2018-Jun-17 15:30N 50°43' W 127°29'0 0.0
2018-Jun-17 15:00N 50°43' W 127°29'0 0.0
2018-Jun-17 14:30N 50°43' W 127°29'0 0.0
2018-Jun-17 14:00N 50°43' W 127°29'0 0.0
2018-Jun-17 13:30N 50°43' W 127°29'0 0.0
2018-Jun-17 13:00N 50°43' W 127°29'0 0.0
2018-Jun-17 12:30N 50°43' W 127°29'0 0.0
2018-Jun-17 12:00N 50°43' W 127°29'0 0.0
2018-Jun-17 11:28N 50°43' W 127°29'0 0.0
2018-Jun-17 11:00N 50°43' W 127°29'0 0.0
2018-Jun-17 10:29N 50°43' W 127°29'0 0.0
2018-Jun-17 10:00N 50°43' W 127°29'0 0.0
2018-Jun-17 09:30N 50°43' W 127°29'0 0.0
2018-Jun-17 09:00N 50°43' W 127°29'0 0.0
2018-Jun-17 08:30N 50°43' W 127°29'0 0.0
2018-Jun-17 08:00N 50°43' W 127°29'0 0.0
2018-Jun-17 07:30N 50°43' W 127°29'0 0.0
2018-Jun-17 07:00N 50°43' W 127°29'0 0.0
2018-Jun-17 06:30N 50°43' W 127°29'0 0.0
2018-Jun-17 06:00N 50°43' W 127°29'0 0.0
2018-Jun-17 05:30N 50°43' W 127°29'0 0.0
2018-Jun-17 05:00N 50°43' W 127°29'0 0.0
2018-Jun-17 04:30N 50°43' W 127°29'0 0.0
2018-Jun-17 03:58N 50°43' W 127°29'0 0.0
2018-Jun-17 03:30N 50°43' W 127°29'0 0.0
2018-Jun-17 02:58N 50°43' W 127°29'0 0.0
2018-Jun-17 02:29N 50°43' W 127°29'5 1.1
2018-Jun-16 21:38N 50°48' W 127°27'1 6.9
2018-Jun-16 21:30N 50°49' W 127°28'4 7.5
2018-Jun-16 21:00N 50°52' W 127°31'4 7.7
2018-Jun-16 20:30N 50°55' W 127°34'3 6.9
2018-Jun-16 20:00N 50°59' W 127°36'3 6.7
2018-Jun-16 19:30N 51°02' W 127°38'3 6.5
2018-Jun-16 19:00N 51°04' W 127°42'3 6.3
2018-Jun-16 18:30N 51°06' W 127°46'3 6.4
2018-Jun-16 17:58N 51°09' W 127°49'3 5.9
2018-Jun-16 17:30N 51°11' W 127°51'13 6.3
2018-Jun-16 15:25N 51°24' W 127°52'3 7.5
2018-Jun-16 15:00N 51°27' W 127°52'4 7.4
2018-Jun-16 14:30N 51°31' W 127°52'4 8.0
2018-Jun-16 14:00N 51°35' W 127°53'4 7.5
2018-Jun-16 13:30N 51°39' W 127°55'4 7.2
2018-Jun-16 13:00N 51°42' W 127°56'3 7.0
2018-Jun-16 12:30N 51°46' W 127°57'4 7.1
2018-Jun-16 12:00N 51°49' W 127°57'3 7.0
2018-Jun-16 11:30N 51°53' W 127°57'4 7.3
2018-Jun-16 11:00N 51°56' W 127°57'4 7.3
2018-Jun-16 10:30N 52°00' W 127°56'3 6.7
2018-Jun-16 10:00N 52°03' W 127°56'3 5.1
2018-Jun-16 09:30N 52°05' W 127°60'3 6.2
2018-Jun-16 09:00N 52°04' W 128°05'3 6.1
2018-Jun-16 08:30N 52°07' W 128°08'3 6.2
2018-Jun-16 08:00N 52°10' W 128°08'2 4.6
2018-Jun-16 07:30N 52°12' W 128°08'3 6.3
2018-Jun-16 07:00N 52°14' W 128°12'3 6.8
2018-Jun-16 06:30N 52°15' W 128°17'3 6.9
2018-Jun-16 06:00N 52°16' W 128°23'3 6.2
2018-Jun-16 05:29N 52°17' W 128°27'3 6.6
2018-Jun-16 05:00N 52°20' W 128°30'3 6.4
2018-Jun-16 04:30N 52°23' W 128°29'3 6.9
2018-Jun-16 04:00N 52°27' W 128°28'3 6.5
2018-Jun-16 03:29N 52°30' W 128°28'3 6.9
2018-Jun-16 02:58N 52°33' W 128°30'2 0.3
2018-Jun-15 19:36N 52°35' W 128°31'6 6.2
2018-Jun-15 18:40N 52°30' W 128°28'2 6.7
2018-Jun-15 18:26N 52°28' W 128°27'3 7.1
2018-Jun-15 18:00N 52°25' W 128°28'10 5.7
2018-Jun-15 16:19N 52°16' W 128°25'2 6.2
2018-Jun-15 15:56N 52°15' W 128°21'3 6.3
2018-Jun-15 15:26N 52°15' W 128°16'3 6.4
2018-Jun-15 14:59N 52°14' W 128°12'3 6.3
2018-Jun-15 14:27N 52°12' W 128°07'3 6.1
2018-Jun-15 14:00N 52°10' W 128°08'3 6.6
2018-Jun-15 13:30N 52°06' W 128°08'3 6.3
2018-Jun-15 13:00N 52°04' W 128°04'3 6.6
2018-Jun-15 12:30N 52°04' W 127°58'3 5.7
2018-Jun-15 12:00N 52°02' W 127°56'3 5.6
2018-Jun-15 11:30N 51°59' W 127°56'3 5.6
2018-Jun-15 11:00N 51°56' W 127°56'3 5.9
2018-Jun-15 10:30N 51°54' W 127°55'3 6.3
2018-Jun-15 10:00N 51°50' W 127°55'3 5.9
2018-Jun-15 09:30N 51°47' W 127°55'3 5.6
2018-Jun-15 09:00N 51°45' W 127°55'3 5.8
2018-Jun-15 08:30N 51°42' W 127°55'3 6.1
2018-Jun-15 08:00N 51°39' W 127°54'3 6.2
2018-Jun-15 07:30N 51°36' W 127°52'3 6.2
2018-Jun-15 07:00N 51°33' W 127°51'3 6.1
2018-Jun-15 06:30N 51°30' W 127°50'3 6.0
2018-Jun-15 05:59N 51°27' W 127°48'3 6.0
2018-Jun-15 05:30N 51°24' W 127°49'3 6.2
2018-Jun-15 05:00N 51°21' W 127°50'9 5.9
2018-Jun-15 03:34N 51°12' W 127°51'1 6.4
2018-Jun-15 03:25N 51°11' W 127°51'3 6.3
2018-Jun-15 03:00N 51°09' W 127°49'3 6.3
2018-Jun-15 02:30N 51°07' W 127°46'3 6.1
2018-Jun-15 02:00N 51°05' W 127°42'3 6.2
2018-Jun-15 01:30N 51°02' W 127°39'3 6.8
2018-Jun-15 01:00N 50°59' W 127°36'3 6.8
2018-Jun-15 00:30N 50°56' W 127°35'3 6.4
2018-Jun-15 00:00N 50°53' W 127°32'3 6.8
2018-Jun-14 23:30N 50°51' W 127°29'3 5.9
2018-Jun-14 23:00N 50°48' W 127°27'3 6.1
2018-Jun-14 22:30N 50°45' W 127°28'2 3.5
2018-Jun-14 22:00N 50°43' W 127°29'0 0.0
2018-Jun-14 21:30N 50°43' W 127°29'0 0.0
2018-Jun-14 20:56N 50°43' W 127°29'0 0.0
2018-Jun-14 20:30N 50°43' W 127°29'0 0.0
2018-Jun-14 19:54N 50°43' W 127°29'0 0.0
2018-Jun-14 19:28N 50°43' W 127°29'0 0.0
2018-Jun-14 19:00N 50°43' W 127°29'0 0.0
2018-Jun-14 18:19N 50°43' W 127°29'0 0.0
2018-Jun-14 18:00N 50°43' W 127°29'1 1.2
2018-Jun-14 17:30N 50°43' W 127°28'1 0.3
2018-Jun-14 15:38N 50°43' W 127°29'0 3.6
2018-Jun-14 15:31N 50°43' W 127°29'0 0.0
2018-Jun-14 07:40N 50°43' W 127°29'0 0.0
2018-Jun-14 07:29N 50°43' W 127°29'0 0.0
2018-Jun-14 01:37N 50°43' W 127°29'0 0.0
2018-Jun-14 01:08N 50°43' W 127°29'0 0.0
2018-Jun-14 00:57N 50°43' W 127°29'0 0.0
2018-Jun-14 00:30N 50°43' W 127°29'0 0.0
2018-Jun-14 00:00N 50°43' W 127°29'0 0.0
2018-Jun-13 23:22N 50°43' W 127°29'0 0.0
2018-Jun-13 22:59N 50°43' W 127°29'0 0.0
2018-Jun-13 22:30N 50°43' W 127°29'0 0.0
2018-Jun-13 22:00N 50°43' W 127°29'0 0.0
2018-Jun-13 21:29N 50°43' W 127°29'0 0.0
2018-Jun-13 21:00N 50°43' W 127°29'0 0.0
2018-Jun-13 20:30N 50°43' W 127°29'0 0.0
2018-Jun-13 20:00N 50°43' W 127°29'0 0.0
2018-Jun-13 19:29N 50°43' W 127°29'0 0.0
2018-Jun-13 18:59N 50°43' W 127°29'0 0.0
2018-Jun-13 18:29N 50°43' W 127°29'0 0.0
2018-Jun-13 18:00N 50°43' W 127°29'0 0.0
2018-Jun-13 17:29N 50°43' W 127°29'0 0.0
2018-Jun-13 16:45N 50°43' W 127°29'0 0.0
2018-Jun-13 16:30N 50°43' W 127°29'0 0.0
2018-Jun-13 16:00N 50°43' W 127°29'0 0.0
2018-Jun-13 15:27N 50°43' W 127°29'0 0.0
2018-Jun-13 06:48N 50°43' W 127°29'0 0.0
2018-Jun-13 06:29N 50°43' W 127°29'0 0.0
2018-Jun-13 05:34N 50°43' W 127°29'0 0.0
2018-Jun-13 05:20N 50°43' W 127°29'0 0.0
2018-Jun-13 04:58N 50°43' W 127°29'0 0.0
2018-Jun-13 04:27N 50°43' W 127°29'0 0.0
2018-Jun-13 03:53N 50°43' W 127°29'0 0.0
2018-Jun-13 03:16N 50°43' W 127°29'0 0.0
2018-Jun-12 22:44N 50°43' W 127°29'0 0.0
2018-Jun-12 22:30N 50°43' W 127°29'0 0.0
2018-Jun-12 22:00N 50°43' W 127°29'0 0.0
2018-Jun-12 21:30N 50°43' W 127°29'0 0.0
2018-Jun-12 21:00N 50°43' W 127°29'0 0.0
2018-Jun-12 20:30N 50°43' W 127°29'0 0.0
2018-Jun-12 20:00N 50°43' W 127°29'0 0.0
2018-Jun-12 19:30N 50°43' W 127°29'0 0.0
2018-Jun-12 19:00N 50°43' W 127°29'0 0.0
2018-Jun-12 18:30N 50°43' W 127°29'0 0.0
2018-Jun-12 18:00N 50°43' W 127°29'0 0.0
2018-Jun-12 17:29N 50°43' W 127°29'0 0.0
2018-Jun-12 17:00N 50°43' W 127°29'  
Track history (hours):
 
Tides and Currents Weather Stations Pressure Air Temp Water Temp Dewpoint Dewpoint Depression Visibility Wind Speed Wind Dir Waves Ship Positions

Regent

Last reported at 2018-Jun-22 11:00 UTC. Time now 2018-Jun-22 11:21 UTC.
Position N 52°00' W 127°56'.

Length 15 m; draft 3.6 m.

Type: Other ship. MMSI: 316006454.

Date/timePositionNaut miles runAvg speedWind from/ knotsBaromVisibWave heightAir tempDewpointWater temp
2018-Jun-22 11:00N 52°00' W 127°56'4 7.0
2018-Jun-22 10:30N 52°04' W 127°57'4 7.2
2018-Jun-22 10:00N 52°04' W 128°02'3 6.4
2018-Jun-22 09:30N 52°05' W 128°07'3 6.3
2018-Jun-22 09:00N 52°08' W 128°08'3 5.7
2018-Jun-22 08:30N 52°11' W 128°06'3 6.1
2018-Jun-22 08:00N 52°13' W 128°10'3 6.3
2018-Jun-22 07:30N 52°14' W 128°15'3 5.9
2018-Jun-22 06:59N 52°15' W 128°19'3 5.9
2018-Jun-22 06:30N 52°16' W 128°24'3 6.1
2018-Jun-22 06:00N 52°18' W 128°28'3 6.0
2018-Jun-22 05:30N 52°20' W 128°30'3 6.6
2018-Jun-22 05:00N 52°24' W 128°29'3 6.1
2018-Jun-22 04:30N 52°26' W 128°28'9 2.2
2018-Jun-22 00:08N 52°36' W 128°31'1 5.3
2018-Jun-21 23:56N 52°34' W 128°31'3 5.8
2018-Jun-21 23:28N 52°32' W 128°29'3 6.9
2018-Jun-21 23:00N 52°29' W 128°28'4 7.3
2018-Jun-21 22:30N 52°25' W 128°28'4 7.3
2018-Jun-21 21:55N 52°21' W 128°30'3 6.7
2018-Jun-21 21:30N 52°18' W 128°29'4 7.3
2018-Jun-21 20:59N 52°16' W 128°24'4 7.2
2018-Jun-21 20:29N 52°15' W 128°18'3 7.0
2018-Jun-21 20:00N 52°14' W 128°13'4 7.1
2018-Jun-21 19:28N 52°13' W 128°07'3 7.0
2018-Jun-21 18:59N 52°10' W 128°08'4 7.4
2018-Jun-21 18:30N 52°06' W 128°07'3 6.3
2018-Jun-21 18:00N 52°05' W 128°03'4 7.1
2018-Jun-21 17:26N 52°04' W 127°57'3 6.1
2018-Jun-21 17:00N 52°01' W 127°56'3 6.3
2018-Jun-21 16:30N 51°58' W 127°56'3 6.4
2018-Jun-21 16:00N 51°55' W 127°56'3 6.8
2018-Jun-21 15:30N 51°52' W 127°55'3 6.7
2018-Jun-21 15:00N 51°48' W 127°55'3 6.7
2018-Jun-21 14:30N 51°45' W 127°55'3 6.4
2018-Jun-21 14:00N 51°42' W 127°54'3 6.3
2018-Jun-21 13:30N 51°39' W 127°54'3 6.6
2018-Jun-21 13:00N 51°36' W 127°52'3 6.3
2018-Jun-21 12:30N 51°33' W 127°51'3 6.2
2018-Jun-21 11:59N 51°29' W 127°51'3 6.0
2018-Jun-21 11:30N 51°27' W 127°50'3 6.4
2018-Jun-21 10:59N 51°23' W 127°49'3 6.6
2018-Jun-21 10:27N 51°20' W 127°51'3 6.4
2018-Jun-21 09:58N 51°17' W 127°52'3 6.2
2018-Jun-21 09:28N 51°14' W 127°51'3 6.1
2018-Jun-21 09:00N 51°11' W 127°50'3 6.1
2018-Jun-21 08:30N 51°08' W 127°48'3 6.6
2018-Jun-21 08:00N 51°06' W 127°44'3 6.5
2018-Jun-21 07:30N 51°04' W 127°41'3 6.7
2018-Jun-21 07:00N 51°01' W 127°38'3 6.6
2018-Jun-21 06:30N 50°58' W 127°35'3 5.8
2018-Jun-21 06:00N 50°55' W 127°34'4 7.2
2018-Jun-21 05:30N 50°52' W 127°31'3 6.8
2018-Jun-21 05:00N 50°49' W 127°28'3 5.8
2018-Jun-21 04:30N 50°46' W 127°28'3 6.1
2018-Jun-21 04:00N 50°43' W 127°29'0 0.4
2018-Jun-21 03:29N 50°43' W 127°29'0 0.0
2018-Jun-21 02:38N 50°43' W 127°29'0 0.0
2018-Jun-21 02:11N 50°43' W 127°29'0 0.0
2018-Jun-21 02:00N 50°43' W 127°29'0 0.0
2018-Jun-21 01:29N 50°43' W 127°29'0 0.0
2018-Jun-21 01:00N 50°43' W 127°29'2 4.1
2018-Jun-21 00:30N 50°45' W 127°28'4 7.1
2018-Jun-21 00:00N 50°49' W 127°27'4 7.3
2018-Jun-20 23:30N 50°52' W 127°31'4 7.1
2018-Jun-20 23:00N 50°55' W 127°34'3 6.8
2018-Jun-20 22:30N 50°58' W 127°36'3 6.5
2018-Jun-20 22:00N 51°01' W 127°38'3 6.3
2018-Jun-20 21:30N 51°03' W 127°41'3 6.5
2018-Jun-20 21:00N 51°06' W 127°45'3 6.7
2018-Jun-20 20:30N 51°08' W 127°48'10 7.1
2018-Jun-20 19:05N 51°18' W 127°53'3 7.4
2018-Jun-20 18:36N 51°21' W 127°53'2 7.1
2018-Jun-20 18:23N 51°23' W 127°52'4 7.4
2018-Jun-20 17:54N 51°26' W 127°52'3 7.6
2018-Jun-20 17:30N 51°29' W 127°52'4 7.2
2018-Jun-20 17:00N 51°33' W 127°53'3 7.1
2018-Jun-20 16:30N 51°36' W 127°54'3 7.0
2018-Jun-20 16:00N 51°40' W 127°56'3 6.9
2018-Jun-20 15:30N 51°43' W 127°56'3 6.8
2018-Jun-20 15:00N 51°46' W 127°57'3 6.9
2018-Jun-20 14:30N 51°50' W 127°57'3 6.8
2018-Jun-20 14:00N 51°53' W 127°57'3 6.6
2018-Jun-20 13:30N 51°57' W 127°57'3 6.6
2018-Jun-20 13:00N 51°60' W 127°56'3 6.6
2018-Jun-20 12:30N 52°03' W 127°56'3 5.7
2018-Jun-20 12:00N 52°05' W 127°60'3 6.8
2018-Jun-20 11:30N 52°05' W 128°05'3 6.1
2018-Jun-20 11:00N 52°07' W 128°08'3 5.8
2018-Jun-20 10:30N 52°10' W 128°08'2 4.6
2018-Jun-20 10:00N 52°13' W 128°08'3 6.6
2018-Jun-20 09:30N 52°14' W 128°13'3 6.7
2018-Jun-20 09:00N 52°15' W 128°18'3 6.6
2018-Jun-20 08:31N 52°15' W 128°24'3 6.3
2018-Jun-20 08:00N 52°17' W 128°27'3 6.4
2018-Jun-20 07:30N 52°20' W 128°30'3 6.6
2018-Jun-20 07:00N 52°24' W 128°29'3 6.6
2018-Jun-20 06:30N 52°27' W 128°27'3 6.2
2018-Jun-20 06:00N 52°30' W 128°28'3 6.6
2018-Jun-20 05:29N 52°33' W 128°30'3 5.5
2018-Jun-20 05:00N 52°36' W 128°31'0 0.0
2018-Jun-20 04:29N 52°36' W 128°31'0 0.0
2018-Jun-20 03:59N 52°36' W 128°31'0 0.0
2018-Jun-20 03:24N 52°36' W 128°31'0 0.0
2018-Jun-20 02:59N 52°36' W 128°31'0 0.0
2018-Jun-20 02:30N 52°36' W 128°31'0 0.0
2018-Jun-20 02:00N 52°36' W 128°31'0 0.0
2018-Jun-20 01:30N 52°36' W 128°31'0 0.0
2018-Jun-20 01:00N 52°36' W 128°31'0 0.0
2018-Jun-20 00:29N 52°36' W 128°31'0 0.0
2018-Jun-19 22:39N 52°36' W 128°31'0 0.0
2018-Jun-19 22:28N 52°36' W 128°31'0 0.0
2018-Jun-19 19:22N 52°36' W 128°31'1 3.2
2018-Jun-19 18:58N 52°34' W 128°31'5 5.6
2018-Jun-19 18:09N 52°30' W 128°28'1 7.2
2018-Jun-19 18:00N 52°29' W 128°27'3 6.5
2018-Jun-19 17:30N 52°26' W 128°28'3 6.4
2018-Jun-19 17:00N 52°23' W 128°29'4 6.7
2018-Jun-19 16:27N 52°19' W 128°30'4 6.6
2018-Jun-19 15:54N 52°16' W 128°26'5 7.8
2018-Jun-19 15:18N 52°15' W 128°18'2 7.5
2018-Jun-19 15:00N 52°14' W 128°15'4 7.0
2018-Jun-19 14:28N 52°14' W 128°09'3 5.8
2018-Jun-19 13:55N 52°10' W 128°07'3 6.2
2018-Jun-19 13:29N 52°08' W 128°08'3 6.2
2018-Jun-19 13:00N 52°05' W 128°06'4 7.5
2018-Jun-19 12:30N 52°05' W 128°00'3 6.6
2018-Jun-19 12:00N 52°03' W 127°56'3 7.0
2018-Jun-19 11:30N 51°59' W 127°56'4 7.0
2018-Jun-19 11:00N 51°56' W 127°56'3 6.9
2018-Jun-19 10:30N 51°52' W 127°55'3 6.9
2018-Jun-19 10:00N 51°49' W 127°55'3 6.8
2018-Jun-19 09:30N 51°46' W 127°55'3 6.9
2018-Jun-19 09:00N 51°42' W 127°54'3 6.8
2018-Jun-19 08:30N 51°39' W 127°53'3 6.8
2018-Jun-19 08:00N 51°36' W 127°52'3 6.5
2018-Jun-19 07:30N 51°32' W 127°51'3 6.6
2018-Jun-19 07:00N 51°29' W 127°50'3 6.7
2018-Jun-19 06:30N 51°26' W 127°48'3 6.4
2018-Jun-19 06:00N 51°23' W 127°49'3 6.5
2018-Jun-19 05:29N 51°20' W 127°51'3 5.9
2018-Jun-19 04:58N 51°17' W 127°52'3 5.9
2018-Jun-19 04:29N 51°14' W 127°51'3 5.8
2018-Jun-19 04:00N 51°11' W 127°50'3 5.9
2018-Jun-19 03:30N 51°08' W 127°48'3 6.2
2018-Jun-19 03:00N 51°06' W 127°45'3 6.1
2018-Jun-19 02:30N 51°04' W 127°41'3 5.9
2018-Jun-19 02:00N 51°02' W 127°38'3 5.8
2018-Jun-19 01:30N 50°59' W 127°36'3 5.2
2018-Jun-19 01:00N 50°57' W 127°35'2 4.9
2018-Jun-19 00:30N 50°54' W 127°33'2 4.6
2018-Jun-19 00:00N 50°53' W 127°31'2 4.2
2018-Jun-18 23:30N 50°51' W 127°29'3 5.2
2018-Jun-18 23:00N 50°49' W 127°27'3 5.6
2018-Jun-18 22:30N 50°46' W 127°28'3 5.1
2018-Jun-18 22:01N 50°43' W 127°28'0 0.1
2018-Jun-18 19:09N 50°43' W 127°29'1 0.5
2018-Jun-18 18:03N 50°43' W 127°28'0 3.9
2018-Jun-18 17:59N 50°43' W 127°28'0 0.9
2018-Jun-18 17:30N 50°43' W 127°29'0 0.0
2018-Jun-18 17:00N 50°43' W 127°29'0 0.0
2018-Jun-18 16:29N 50°43' W 127°29'0 0.0
2018-Jun-18 15:58N 50°43' W 127°29'0 0.0
2018-Jun-18 15:29N 50°43' W 127°29'0 0.0
2018-Jun-18 14:19N 50°43' W 127°29'0 0.0
2018-Jun-18 14:00N 50°43' W 127°29'0 0.0
2018-Jun-18 13:28N 50°43' W 127°29'0 0.0
2018-Jun-18 12:17N 50°43' W 127°29'0 0.0
2018-Jun-18 12:00N 50°43' W 127°29'0 0.0
2018-Jun-18 11:30N 50°43' W 127°29'0 0.0
2018-Jun-18 11:00N 50°43' W 127°29'0 0.0
2018-Jun-18 10:30N 50°43' W 127°29'0 0.0
2018-Jun-18 10:00N 50°43' W 127°29'0 0.0
2018-Jun-18 09:30N 50°43' W 127°29'0 0.0
2018-Jun-18 09:00N 50°43' W 127°29'0 0.0
2018-Jun-18 08:30N 50°43' W 127°29'0 0.0
2018-Jun-18 08:00N 50°43' W 127°29'0 0.0
2018-Jun-18 07:30N 50°43' W 127°29'0 0.0
2018-Jun-18 07:00N 50°43' W 127°29'0 0.0
2018-Jun-18 06:30N 50°43' W 127°29'0 0.0
2018-Jun-18 05:56N 50°43' W 127°29'0 0.0
2018-Jun-18 05:26N 50°43' W 127°29'0 0.0
2018-Jun-18 05:00N 50°43' W 127°29'0 0.0
2018-Jun-18 04:29N 50°43' W 127°29'0 0.0
2018-Jun-18 03:35N 50°43' W 127°29'0 0.0
2018-Jun-18 03:28N 50°43' W 127°29'0 0.0
2018-Jun-18 03:00N 50°43' W 127°29'0 0.0
2018-Jun-18 02:23N 50°43' W 127°29'0 0.0
2018-Jun-18 02:00N 50°43' W 127°29'0 0.0
2018-Jun-18 01:30N 50°43' W 127°29'0 0.0
2018-Jun-18 01:00N 50°43' W 127°29'0 0.0
2018-Jun-18 00:30N 50°43' W 127°29'0 0.0
2018-Jun-18 00:00N 50°43' W 127°29'0 0.0
2018-Jun-17 23:30N 50°43' W 127°29'0 0.0
2018-Jun-17 23:00N 50°43' W 127°29'0 0.0
2018-Jun-17 22:22N 50°43' W 127°29'0 0.0
2018-Jun-17 22:00N 50°43' W 127°29'0 0.0
2018-Jun-17 21:28N 50°43' W 127°29'0 0.0
2018-Jun-17 21:00N 50°43' W 127°29'0 0.0
2018-Jun-17 20:29N 50°43' W 127°29'0 0.0
2018-Jun-17 19:56N 50°43' W 127°29'0 0.0
2018-Jun-17 19:29N 50°43' W 127°29'0 0.0
2018-Jun-17 18:59N 50°43' W 127°29'0 0.0
2018-Jun-17 18:09N 50°43' W 127°29'0 0.0
2018-Jun-17 18:00N 50°43' W 127°29'0 0.0
2018-Jun-17 17:30N 50°43' W 127°29'0 0.0
2018-Jun-17 17:00N 50°43' W 127°29'0 0.0
2018-Jun-17 16:30N 50°43' W 127°29'0 0.0
2018-Jun-17 15:56N 50°43' W 127°29'0 0.0
2018-Jun-17 15:30N 50°43' W 127°29'0 0.0
2018-Jun-17 15:00N 50°43' W 127°29'0 0.0
2018-Jun-17 14:30N 50°43' W 127°29'0 0.0
2018-Jun-17 14:00N 50°43' W 127°29'0 0.0
2018-Jun-17 13:30N 50°43' W 127°29'0 0.0
2018-Jun-17 13:00N 50°43' W 127°29'0 0.0
2018-Jun-17 12:30N 50°43' W 127°29'0 0.0
2018-Jun-17 12:00N 50°43' W 127°29'0 0.0
2018-Jun-17 11:28N 50°43' W 127°29'0 0.0
2018-Jun-17 11:00N 50°43' W 127°29'0 0.0
2018-Jun-17 10:29N 50°43' W 127°29'0 0.0
2018-Jun-17 10:00N 50°43' W 127°29'0 0.0
2018-Jun-17 09:30N 50°43' W 127°29'0 0.0
2018-Jun-17 09:00N 50°43' W 127°29'0 0.0
2018-Jun-17 08:30N 50°43' W 127°29'0 0.0
2018-Jun-17 08:00N 50°43' W 127°29'0 0.0
2018-Jun-17 07:30N 50°43' W 127°29'0 0.0
2018-Jun-17 07:00N 50°43' W 127°29'0 0.0
2018-Jun-17 06:30N 50°43' W 127°29'0 0.0
2018-Jun-17 06:00N 50°43' W 127°29'0 0.0
2018-Jun-17 05:30N 50°43' W 127°29'0 0.0
2018-Jun-17 05:00N 50°43' W 127°29'0 0.0
2018-Jun-17 04:30N 50°43' W 127°29'0 0.0
2018-Jun-17 03:58N 50°43' W 127°29'0 0.0
2018-Jun-17 03:30N 50°43' W 127°29'0 0.0
2018-Jun-17 02:58N 50°43' W 127°29'0 0.0
2018-Jun-17 02:29N 50°43' W 127°29'5 1.1
2018-Jun-16 21:38N 50°48' W 127°27'1 6.9
2018-Jun-16 21:30N 50°49' W 127°28'4 7.5
2018-Jun-16 21:00N 50°52' W 127°31'4 7.7
2018-Jun-16 20:30N 50°55' W 127°34'3 6.9
2018-Jun-16 20:00N 50°59' W 127°36'3 6.7
2018-Jun-16 19:30N 51°02' W 127°38'3 6.5
2018-Jun-16 19:00N 51°04' W 127°42'3 6.3
2018-Jun-16 18:30N 51°06' W 127°46'3 6.4
2018-Jun-16 17:58N 51°09' W 127°49'3 5.9
2018-Jun-16 17:30N 51°11' W 127°51'13 6.3
2018-Jun-16 15:25N 51°24' W 127°52'3 7.5
2018-Jun-16 15:00N 51°27' W 127°52'4 7.4
2018-Jun-16 14:30N 51°31' W 127°52'4 8.0
2018-Jun-16 14:00N 51°35' W 127°53'4 7.5
2018-Jun-16 13:30N 51°39' W 127°55'4 7.2
2018-Jun-16 13:00N 51°42' W 127°56'3 7.0
2018-Jun-16 12:30N 51°46' W 127°57'4 7.1
2018-Jun-16 12:00N 51°49' W 127°57'3 7.0
2018-Jun-16 11:30N 51°53' W 127°57'4 7.3
2018-Jun-16 11:00N 51°56' W 127°57'4 7.3
2018-Jun-16 10:30N 52°00' W 127°56'3 6.7
2018-Jun-16 10:00N 52°03' W 127°56'3 5.1
2018-Jun-16 09:30N 52°05' W 127°60'3 6.2
2018-Jun-16 09:00N 52°04' W 128°05'3 6.1
2018-Jun-16 08:30N 52°07' W 128°08'3 6.2
2018-Jun-16 08:00N 52°10' W 128°08'2 4.6
2018-Jun-16 07:30N 52°12' W 128°08'3 6.3
2018-Jun-16 07:00N 52°14' W 128°12'3 6.8
2018-Jun-16 06:30N 52°15' W 128°17'3 6.9
2018-Jun-16 06:00N 52°16' W 128°23'3 6.2
2018-Jun-16 05:29N 52°17' W 128°27'3 6.6
2018-Jun-16 05:00N 52°20' W 128°30'3 6.4
2018-Jun-16 04:30N 52°23' W 128°29'3 6.9
2018-Jun-16 04:00N 52°27' W 128°28'3 6.5
2018-Jun-16 03:29N 52°30' W 128°28'3 6.9
2018-Jun-16 02:58N 52°33' W 128°30'2 0.3
2018-Jun-15 19:36N 52°35' W 128°31'6 6.2
2018-Jun-15 18:40N 52°30' W 128°28'2 6.7
2018-Jun-15 18:26N 52°28' W 128°27'3 7.1
2018-Jun-15 18:00N 52°25' W 128°28'10 5.7
2018-Jun-15 16:19N 52°16' W 128°25'2 6.2
2018-Jun-15 15:56N 52°15' W 128°21'3 6.3
2018-Jun-15 15:26N 52°15' W 128°16'3 6.4
2018-Jun-15 14:59N 52°14' W 128°12'3 6.3
2018-Jun-15 14:27N 52°12' W 128°07'3 6.1
2018-Jun-15 14:00N 52°10' W 128°08'3 6.6
2018-Jun-15 13:30N 52°06' W 128°08'3 6.3
2018-Jun-15 13:00N 52°04' W 128°04'3 6.6
2018-Jun-15 12:30N 52°04' W 127°58'3 5.7
2018-Jun-15 12:00N 52°02' W 127°56'3 5.6
2018-Jun-15 11:30N 51°59' W 127°56'3 5.6
2018-Jun-15 11:00N 51°56' W 127°56'3 5.9
2018-Jun-15 10:30N 51°54' W 127°55'3 6.3
2018-Jun-15 10:00N 51°50' W 127°55'3 5.9
2018-Jun-15 09:30N 51°47' W 127°55'3 5.6
2018-Jun-15 09:00N 51°45' W 127°55'3 5.8
2018-Jun-15 08:30N 51°42' W 127°55'3 6.1
2018-Jun-15 08:00N 51°39' W 127°54'3 6.2
2018-Jun-15 07:30N 51°36' W 127°52'3 6.2
2018-Jun-15 07:00N 51°33' W 127°51'3 6.1
2018-Jun-15 06:30N 51°30' W 127°50'3 6.0
2018-Jun-15 05:59N 51°27' W 127°48'3 6.0
2018-Jun-15 05:30N 51°24' W 127°49'3 6.2
2018-Jun-15 05:00N 51°21' W 127°50'9 5.9
2018-Jun-15 03:34N 51°12' W 127°51'1 6.4
2018-Jun-15 03:25N 51°11' W 127°51'3 6.3
2018-Jun-15 03:00N 51°09' W 127°49'3 6.3
2018-Jun-15 02:30N 51°07' W 127°46'3 6.1
2018-Jun-15 02:00N 51°05' W 127°42'3 6.2
2018-Jun-15 01:30N 51°02' W 127°39'3 6.8
2018-Jun-15 01:00N 50°59' W 127°36'3 6.8
2018-Jun-15 00:30N 50°56' W 127°35'3 6.4
2018-Jun-15 00:00N 50°53' W 127°32'3 6.8
2018-Jun-14 23:30N 50°51' W 127°29'3 5.9
2018-Jun-14 23:00N 50°48' W 127°27'3 6.1
2018-Jun-14 22:30N 50°45' W 127°28'2 3.5
2018-Jun-14 22:00N 50°43' W 127°29'0 0.0
2018-Jun-14 21:30N 50°43' W 127°29'0 0.0
2018-Jun-14 20:56N 50°43' W 127°29'0 0.0
2018-Jun-14 20:30N 50°43' W 127°29'0 0.0
2018-Jun-14 19:54N 50°43' W 127°29'0 0.0
2018-Jun-14 19:28N 50°43' W 127°29'0 0.0
2018-Jun-14 19:00N 50°43' W 127°29'0 0.0
2018-Jun-14 18:19N 50°43' W 127°29'0 0.0
2018-Jun-14 18:00N 50°43' W 127°29'1 1.2
2018-Jun-14 17:30N 50°43' W 127°28'1 0.3
2018-Jun-14 15:38N 50°43' W 127°29'0 3.6
2018-Jun-14 15:31N 50°43' W 127°29'0 0.0
2018-Jun-14 07:40N 50°43' W 127°29'0 0.0
2018-Jun-14 07:29N 50°43' W 127°29'0 0.0
2018-Jun-14 01:37N 50°43' W 127°29'0 0.0
2018-Jun-14 01:08N 50°43' W 127°29'0 0.0
2018-Jun-14 00:57N 50°43' W 127°29'0 0.0
2018-Jun-14 00:30N 50°43' W 127°29'0 0.0
2018-Jun-14 00:00N 50°43' W 127°29'0 0.0
2018-Jun-13 23:22N 50°43' W 127°29'0 0.0
2018-Jun-13 22:59N 50°43' W 127°29'0 0.0
2018-Jun-13 22:30N 50°43' W 127°29'0 0.0
2018-Jun-13 22:00N 50°43' W 127°29'0 0.0
2018-Jun-13 21:29N 50°43' W 127°29'0 0.0
2018-Jun-13 21:00N 50°43' W 127°29'0 0.0
2018-Jun-13 20:30N 50°43' W 127°29'0 0.0
2018-Jun-13 20:00N 50°43' W 127°29'0 0.0
2018-Jun-13 19:29N 50°43' W 127°29'0 0.0
2018-Jun-13 18:59N 50°43' W 127°29'0 0.0
2018-Jun-13 18:29N 50°43' W 127°29'0 0.0
2018-Jun-13 18:00N 50°43' W 127°29'0 0.0
2018-Jun-13 17:29N 50°43' W 127°29'0 0.0
2018-Jun-13 16:45N 50°43' W 127°29'0 0.0
2018-Jun-13 16:30N 50°43' W 127°29'0 0.0
2018-Jun-13 16:00N 50°43' W 127°29'0 0.0
2018-Jun-13 15:27N 50°43' W 127°29'0 0.0
2018-Jun-13 06:48N 50°43' W 127°29'0 0.0
2018-Jun-13 06:29N 50°43' W 127°29'0 0.0
2018-Jun-13 05:34N 50°43' W 127°29'0 0.0
2018-Jun-13 05:20N 50°43' W 127°29'0 0.0
2018-Jun-13 04:58N 50°43' W 127°29'0 0.0
2018-Jun-13 04:27N 50°43' W 127°29'0 0.0
2018-Jun-13 03:53N 50°43' W 127°29'0 0.0
2018-Jun-13 03:16N 50°43' W 127°29'0 0.0
2018-Jun-12 22:44N 50°43' W 127°29'0 0.0
2018-Jun-12 22:30N 50°43' W 127°29'0 0.0
2018-Jun-12 22:00N 50°43' W 127°29'0 0.0
2018-Jun-12 21:30N 50°43' W 127°29'0 0.0
2018-Jun-12 21:00N 50°43' W 127°29'0 0.0
2018-Jun-12 20:30N 50°43' W 127°29'0 0.0
2018-Jun-12 20:00N 50°43' W 127°29'0 0.0
2018-Jun-12 19:30N 50°43' W 127°29'0 0.0
2018-Jun-12 19:00N 50°43' W 127°29'0 0.0
2018-Jun-12 18:30N 50°43' W 127°29'0 0.0
2018-Jun-12 18:00N 50°43' W 127°29'0 0.0
2018-Jun-12 17:29N 50°43' W 127°29'0 0.0
2018-Jun-12 17:00N 50°43' W 127°29'  

Dump ship's entire track history